Search for airport 
image banner adimage banner adimage banner ad
image banner ad

CA74 - Skydive California

Located in Tracy, United States

ICAO - CA74, IATA -

Data provided by Airmate  

General information

Coordinates: N37°43'53" W121°20'8"
Elevation is 35 feet MSL.
 
View others Airports in California

Operational data

Special qualification required
Current time UTC:
Current local time:
Weather at : KTCY - Tracy Muni ( 10 km )
METAR: KTCY 141235Z AUTO 14004KT 10SM CLR 16/15 A2998 RMK A01
View NOTAMs / SUP AIP / TFR affecting this airport [VIEW]
Communications frequencies: [VIEW]

Runways:

RWY identifierQFULength (ft)Width (ft)SurfaceLDA (ft)
12206330ASPH
30206330ASPH

Airport contact information

Address: Tracy United States

Satellite view of CA74